CheckWX is a tool to help pilots better visualize weather data.  It is not intended as a substitute for an official pre-flight weather briefing.

14:03:02 UTC

KAHN TAF
Athens / Ben Epps Airport
Athens, Georgia, USA
KAHN 131146Z 1312/1412 05010KT 4SM -SHRA BR OVC006 FM140300 03010KT 2SM -SHRA OVC004 FM140900 29006KT P6SM BKN010 PROB30 1409/1412 4SM -SHRA OVC007

Dec-13@
12:00 UTC

Dec-13 @ 12:00 UTC

Dec-14@
03:00 UTC

Dec-14 @ 03:00 UTC

KAHN 131146Z 1312/1412 05010KT 4SM -SHRA BR OVC006
Wind
  • 050° at 10 KTS
Conditions
Light Rain, Mist
Cloud Levels
  • Overcast at 600' AGL

Dec-14@
03:00 UTC

Dec-14 @ 03:00 UTC

Dec-14@
09:00 UTC

Dec-14 @ 09:00 UTC

FM140300 03010KT 2SM -SHRA OVC004

From

From Standard forecast or significant change

Wind
  • 030° at 10 KTS
Conditions
Light Rain
Cloud Levels
  • Overcast at 400' AGL

Dec-14@
09:00 UTC

Dec-14 @ 09:00 UTC

Dec-14@
12:00 UTC

Dec-14 @ 12:00 UTC

FM140900 29006KT P6SM BKN010

From

From Standard forecast or significant change

Wind
  • 290° at 6 KTS
Cloud Levels
  • Broken at 1,000' AGL

Dec-14@
09:00 UTC

Dec-14 @ 09:00 UTC

Dec-14@
12:00 UTC

Dec-14 @ 12:00 UTC

PROB30 1409/1412 4SM -SHRA OVC007

Probable - 30% Likelihood

Probable - 30% Likelihood during this time.

Conditions
Light Rain
Cloud Levels
  • Overcast at 700' AGL